createdAt,value
2019-02-28T00:02:26.915Z,99112.95
2019-02-28T00:04:55.765Z,99110.78
2019-02-28T00:07:24.519Z,99114.95
2019-02-28T00:09:53.391Z,99108.97
2019-02-28T00:12:22.255Z,99108.69
2019-02-28T00:14:51.064Z,99112.84
2019-02-28T00:17:19.870Z,99109.44
2019-02-28T00:19:48.645Z,99111.26
2019-02-28T00:22:17.454Z,99110.85
2019-02-28T00:24:46.296Z,99105.10
2019-02-28T00:27:15.094Z,99095.83
2019-02-28T00:29:43.893Z,99099.13
2019-02-28T00:32:12.690Z,99087.11
2019-02-28T00:34:41.473Z,99090.11
2019-02-28T00:37:10.269Z,99093.37
2019-02-28T00:39:42.047Z,99095.71
2019-02-28T00:42:10.864Z,99093.97
2019-02-28T00:44:39.646Z,99086.00
2019-02-28T00:47:08.427Z,99088.59
2019-02-28T00:49:37.222Z,99082.28
2019-02-28T00:52:06.086Z,99077.54
2019-02-28T00:54:34.876Z,99067.16
2019-02-28T00:57:03.661Z,99076.58
2019-02-28T00:59:32.538Z,99063.16
2019-02-28T01:02:01.540Z,99063.67
2019-02-28T01:04:30.888Z,99055.65
2019-02-28T01:06:59.746Z,99054.98
2019-02-28T01:09:30.160Z,99048.97
2019-02-28T01:11:59.051Z,99043.97
2019-02-28T01:14:27.825Z,99026.97
2019-02-28T01:16:56.627Z,99035.00
2019-02-28T01:19:25.519Z,99036.06
2019-02-28T01:21:55.432Z,99031.92
2019-02-28T01:24:25.012Z,99025.67
2019-02-28T01:26:53.850Z,99025.67
2019-02-28T01:29:22.629Z,99028.17
2019-02-28T01:31:51.493Z,99024.76
2019-02-28T01:34:20.275Z,99021.89
2019-02-28T01:36:49.594Z,99023.70
2019-02-28T01:39:18.329Z,99010.16
2019-02-28T01:41:47.163Z,99014.39
2019-02-28T01:44:16.053Z,99013.02
2019-02-28T01:46:44.856Z,99002.34
2019-02-28T01:49:13.634Z,99004.31
2019-02-28T01:51:42.427Z,98999.31
2019-02-28T01:54:11.206Z,99007.47
2019-02-28T01:56:40.108Z,98998.06
2019-02-28T01:59:09.269Z,98998.39
2019-02-28T02:01:38.196Z,98998.53
2019-02-28T02:04:06.989Z,98999.38
2019-02-28T02:06:36.006Z,98993.27
2019-02-28T02:09:08.141Z,98990.03
2019-02-28T02:11:36.784Z,98989.11
2019-02-28T02:14:07.453Z,98981.59
2019-02-28T02:16:36.225Z,98983.65
2019-02-28T02:19:05.145Z,98987.91
2019-02-28T02:21:34.873Z,98977.41
2019-02-28T02:24:04.693Z,98979.52
2019-02-28T02:26:33.547Z,98972.06
2019-02-28T02:29:02.346Z,98967.59
2019-02-28T02:31:31.194Z,98969.20
2019-02-28T02:34:00.002Z,98974.20
2019-02-28T02:36:28.787Z,98971.16
2019-02-28T02:38:57.567Z,98968.77
2019-02-28T02:41:26.346Z,98963.59
2019-02-28T02:43:56.042Z,98965.46
2019-02-28T02:46:24.836Z,98958.02
2019-02-28T02:48:53.614Z,98961.52
2019-02-28T02:51:22.389Z,98954.59
2019-02-28T02:53:51.168Z,98952.13
2019-02-28T02:56:20.169Z,98951.22
2019-02-28T02:58:48.958Z,98946.22
2019-02-28T03:01:17.761Z,98941.34
2019-02-28T03:03:46.636Z,98940.70
2019-02-28T03:06:15.447Z,98938.42
2019-02-28T03:08:44.420Z,98942.20
2019-02-28T03:11:13.355Z,98942.33
2019-02-28T03:13:43.972Z,98930.79
2019-02-28T03:16:12.911Z,98936.34
2019-02-28T03:18:41.733Z,98928.64
2019-02-28T03:21:15.067Z,98926.73
2019-02-28T03:23:41.198Z,98926.13
2019-02-28T03:26:09.969Z,98928.13
2019-02-28T03:28:38.756Z,98919.30
2019-02-28T03:31:14.219Z,98922.12
2019-02-28T03:33:38.181Z,98917.15
2019-02-28T03:36:07.347Z,98922.09
2019-02-28T03:38:36.128Z,98919.16
2019-02-28T03:41:05.063Z,98918.08
2019-02-28T03:43:33.922Z,98918.24
2019-02-28T03:46:06.481Z,98910.55
2019-02-28T03:48:35.967Z,98911.19
2019-02-28T03:51:03.718Z,98921.98
2019-02-28T03:53:32.581Z,98904.92
2019-02-28T03:56:01.420Z,98908.30
2019-02-28T03:58:30.371Z,98913.27
2019-02-28T04:00:59.228Z,98916.72
2019-02-28T04:03:33.333Z,98915.72
2019-02-28T04:06:03.370Z,98912.64
2019-02-28T04:08:30.503Z,98915.52
2019-02-28T04:10:59.525Z,98915.30
2019-02-28T04:13:28.318Z,98914.28
2019-02-28T04:16:08.325Z,98914.56
2019-02-28T04:18:27.669Z,98913.91
2019-02-28T04:20:56.668Z,98919.30
2019-02-28T04:23:25.489Z,98922.39
2019-02-28T04:25:56.998Z,98920.53
2019-02-28T04:28:24.771Z,98920.18
2019-02-28T04:30:53.671Z,98916.67
2019-02-28T04:33:22.440Z,98914.95
2019-02-28T04:35:51.349Z,98916.03
2019-02-28T04:38:21.399Z,98909.55
2019-02-28T04:40:50.192Z,98903.75
2019-02-28T04:43:19.073Z,98895.89
2019-02-28T04:45:47.879Z,98901.34
2019-02-28T04:48:16.654Z,98905.01
2019-02-28T04:50:45.441Z,98903.21
2019-02-28T04:53:14.233Z,98905.52
2019-02-28T04:55:43.123Z,98906.01
2019-02-28T04:58:11.885Z,98911.83
2019-02-28T05:00:40.743Z,98908.95
2019-02-28T05:03:09.522Z,98905.67
2019-02-28T05:05:38.299Z,98909.91
2019-02-28T05:08:07.087Z,98909.62
2019-02-28T05:10:35.854Z,98908.48
2019-02-28T05:13:04.705Z,98917.31
2019-02-28T05:15:37.394Z,98913.84
2019-02-28T05:18:04.089Z,98920.05
2019-02-28T05:20:32.955Z,98925.28
2019-02-28T05:23:02.676Z,98921.47
2019-02-28T05:25:31.688Z,98924.06
2019-02-28T05:28:00.679Z,98923.91
2019-02-28T05:30:29.460Z,98927.20
2019-02-28T05:32:58.327Z,98925.02
2019-02-28T05:35:27.132Z,98936.87
2019-02-28T05:37:55.922Z,98932.63
2019-02-28T05:40:24.698Z,98927.21
2019-02-28T05:42:54.673Z,98927.83
2019-02-28T05:45:24.089Z,98928.47
2019-02-28T05:47:52.848Z,98930.09
2019-02-28T05:50:21.614Z,98927.61
2019-02-28T05:52:50.407Z,98930.27
2019-02-28T05:55:24.431Z,98932.48
2019-02-28T05:57:49.818Z,98940.48
2019-02-28T06:00:19.999Z,98937.76
2019-02-28T06:02:48.964Z,98940.22
2019-02-28T06:05:17.755Z,98935.29
2019-02-28T06:07:46.570Z,98931.59
2019-02-28T06:10:15.542Z,98931.94
2019-02-28T06:12:45.027Z,98934.69
2019-02-28T06:15:15.426Z,98946.70
2019-02-28T06:17:44.390Z,98950.02
2019-02-28T06:20:16.203Z,98949.43
2019-02-28T06:22:45.156Z,98946.61
2019-02-28T06:25:22.655Z,98954.80
2019-02-28T06:27:49.056Z,98949.26
2019-02-28T06:30:16.026Z,98950.30
2019-02-28T06:32:44.845Z,98950.59
2019-02-28T06:35:17.784Z,98954.41
2019-02-28T06:37:45.103Z,98952.89
2019-02-28T06:40:14.253Z,98951.16
2019-02-28T06:42:43.448Z,98953.33
2019-02-28T06:45:14.452Z,98954.73
2019-02-28T06:47:47.972Z,98960.66
2019-02-28T06:50:14.169Z,98956.98
2019-02-28T06:52:43.089Z,98957.91
2019-02-28T06:55:15.559Z,98963.87
2019-02-28T06:57:44.343Z,98959.89
2019-02-28T07:00:14.152Z,98965.72
2019-02-28T07:02:43.062Z,98962.48
2019-02-28T07:05:12.101Z,98957.78
2019-02-28T07:07:40.882Z,98953.45
2019-02-28T07:10:12.697Z,98957.43
2019-02-28T07:12:41.144Z,98960.22
2019-02-28T07:15:10.180Z,98954.37
2019-02-28T07:17:39.122Z,98958.22
2019-02-28T07:20:10.152Z,98957.27
2019-02-28T07:22:40.095Z,98962.22
2019-02-28T07:25:09.444Z,98960.39
2019-02-28T07:27:39.707Z,98964.80
2019-02-28T07:30:17.269Z,98959.24
2019-02-28T07:32:42.183Z,98964.97
2019-02-28T07:35:11.128Z,98966.06
2019-02-28T07:37:40.236Z,98959.51
2019-02-28T07:40:15.561Z,98950.09
2019-02-28T07:42:40.870Z,98955.26
2019-02-28T07:45:12.137Z,98953.02
2019-02-28T07:47:41.136Z,98951.67
2019-02-28T07:50:10.855Z,98952.06
2019-02-28T07:52:40.192Z,98947.27
2019-02-28T07:55:10.116Z,98955.59
2019-02-28T07:57:39.079Z,98952.08
2019-02-28T08:00:16.753Z,98956.08
2019-02-28T08:02:42.261Z,98955.38
2019-02-28T08:05:12.230Z,98948.38
2019-02-28T08:07:41.104Z,98953.41
2019-02-28T08:10:12.735Z,98949.95
2019-02-28T08:12:42.736Z,98946.64
2019-02-28T08:15:14.967Z,98942.41
2019-02-28T08:17:44.702Z,98942.70
2019-02-28T08:20:14.261Z,98934.13
2019-02-28T08:22:43.019Z,98943.38
2019-02-28T08:25:12.562Z,98943.36
2019-02-28T08:27:41.349Z,98942.20
2019-02-28T08:30:16.349Z,98945.89
2019-02-28T08:32:46.877Z,98943.44
2019-02-28T08:35:15.098Z,98931.83
2019-02-28T08:37:44.102Z,98927.86
2019-02-28T08:40:17.252Z,98930.34
2019-02-28T08:42:46.224Z,98924.50
2019-02-28T08:45:15.391Z,98932.98
2019-02-28T08:47:44.337Z,98923.84
2019-02-28T08:50:19.129Z,98929.41
2019-02-28T08:52:48.380Z,98927.08
2019-02-28T08:55:17.256Z,98928.84
2019-02-28T08:57:54.428Z,98921.97
2019-02-28T09:00:18.065Z,98919.19
2019-02-28T09:02:52.267Z,98918.52
2019-02-28T09:05:17.617Z,98915.45
2019-02-28T09:07:50.929Z,98912.02
2019-02-28T09:10:18.897Z,98912.34
2019-02-28T09:12:48.103Z,98900.96
2019-02-28T09:15:17.487Z,98897.25
2019-02-28T09:17:46.415Z,98891.42
2019-02-28T09:20:15.488Z,98889.11
2019-02-28T09:22:44.713Z,98900.05
2019-02-28T09:25:14.835Z,98892.98
2019-02-28T09:27:43.893Z,98894.77
2019-02-28T09:30:19.062Z,98893.52
2019-02-28T09:32:48.167Z,98897.70
2019-02-28T09:35:17.792Z,98891.21
2019-02-28T09:37:46.641Z,98889.70
2019-02-28T09:40:15.801Z,98888.91
2019-02-28T09:42:47.885Z,98886.13
2019-02-28T09:45:17.271Z,98887.23
2019-02-28T09:47:46.159Z,98892.33
2019-02-28T09:50:19.400Z,98876.83
2019-02-28T09:52:47.720Z,98874.69
2019-02-28T09:55:16.582Z,98864.06
2019-02-28T09:57:45.388Z,98874.13
2019-02-28T10:00:16.523Z,98864.43
2019-02-28T10:02:45.727Z,98860.92
2019-02-28T10:05:14.897Z,98856.06
2019-02-28T10:07:43.935Z,98856.55
2019-02-28T10:10:17.450Z,98861.03
2019-02-28T10:12:45.861Z,98859.09
2019-02-28T10:15:16.547Z,98858.48
2019-02-28T10:17:45.645Z,98848.84
2019-02-28T10:20:16.902Z,98861.47
2019-02-28T10:22:47.328Z,98859.07
2019-02-28T10:25:17.033Z,98864.53
2019-02-28T10:27:46.046Z,98851.66
2019-02-28T10:30:17.239Z,98859.91
2019-02-28T10:32:46.272Z,98855.95
2019-02-28T10:35:15.451Z,98852.46
2019-02-28T10:37:44.443Z,98857.34
2019-02-28T10:40:17.767Z,98846.53
2019-02-28T10:42:46.815Z,98846.34
2019-02-28T10:45:15.985Z,98835.06
2019-02-28T10:47:44.883Z,98847.08
2019-02-28T10:50:18.682Z,98841.27
2019-02-28T10:52:47.989Z,98853.88
2019-02-28T10:55:19.370Z,98855.30
2019-02-28T10:57:48.988Z,98840.63
2019-02-28T11:00:32.879Z,98843.50
2019-02-28T11:03:01.323Z,98847.56
2019-02-28T11:05:31.801Z,98845.22
2019-02-28T11:08:01.562Z,98841.92
2019-02-28T11:10:35.523Z,98844.01
2019-02-28T11:13:03.613Z,98838.79
2019-02-28T11:15:32.534Z,98831.97
2019-02-28T11:18:01.487Z,98825.41
2019-02-28T11:20:30.438Z,98818.11
2019-02-28T11:22:59.583Z,98814.53
2019-02-28T11:25:34.591Z,98813.28
2019-02-28T11:28:00.191Z,98811.33
2019-02-28T11:30:29.231Z,98806.74
2019-02-28T11:33:03.064Z,98805.50
2019-02-28T11:35:29.425Z,98814.81
2019-02-28T11:37:58.357Z,98811.03
2019-02-28T11:40:29.201Z,98815.53
2019-02-28T11:43:02.611Z,98821.81
2019-02-28T11:45:30.311Z,98820.15
2019-02-28T11:48:00.486Z,98818.84
2019-02-28T11:50:29.540Z,98807.70
2019-02-28T11:53:03.258Z,98805.56
2019-02-28T11:55:28.989Z,98804.91
2019-02-28T11:57:58.630Z,98800.59
2019-02-28T12:00:29.020Z,98795.74
2019-02-28T12:03:00.831Z,98790.78
2019-02-28T12:05:29.095Z,98781.80
2019-02-28T12:07:58.026Z,98787.14
2019-02-28T12:10:27.893Z,98779.81
2019-02-28T12:12:56.941Z,98780.47
2019-02-28T12:15:26.783Z,98773.83
2019-02-28T12:17:55.663Z,98778.49
2019-02-28T12:20:26.561Z,98789.28
2019-02-28T12:22:55.898Z,98785.14
2019-02-28T12:25:25.722Z,98784.96
2019-02-28T12:27:55.487Z,98773.67
2019-02-28T12:30:26.235Z,98768.86
2019-02-28T12:32:55.702Z,98764.53
2019-02-28T12:35:24.577Z,98758.22
2019-02-28T12:37:54.213Z,98765.50
2019-02-28T12:40:25.781Z,98755.87
2019-02-28T12:42:54.660Z,98750.41
2019-02-28T12:45:26.294Z,98743.34
2019-02-28T12:47:56.191Z,98732.75
2019-02-28T12:50:29.461Z,98732.75
2019-02-28T12:52:58.647Z,98743.53
2019-02-28T12:55:27.534Z,98729.78
2019-02-28T12:57:57.843Z,98730.09
2019-02-28T13:00:29.826Z,98728.19
2019-02-28T13:02:58.869Z,98728.44
2019-02-28T13:05:27.748Z,98726.34
2019-02-28T13:07:56.935Z,98718.36
2019-02-28T13:10:28.010Z,98703.89
2019-02-28T13:13:05.617Z,98707.41
2019-02-28T13:15:27.925Z,98695.73
2019-02-28T13:17:57.207Z,98695.11
2019-02-28T13:20:32.184Z,98690.09
2019-02-28T13:22:59.535Z,98683.36
2019-02-28T13:25:28.134Z,98685.70
2019-02-28T13:27:57.847Z,98682.16
2019-02-28T13:30:27.723Z,98674.83
2019-02-28T13:32:57.686Z,98676.95
2019-02-28T13:35:28.382Z,98677.05
2019-02-28T13:37:57.994Z,98680.32
2019-02-28T13:40:28.015Z,98674.84
2019-02-28T13:42:56.858Z,98678.81
2019-02-28T13:45:26.468Z,98673.27
2019-02-28T13:47:55.448Z,98674.36
2019-02-28T13:50:26.818Z,98683.50
2019-02-28T13:52:56.461Z,98674.70
2019-02-28T13:55:25.885Z,98670.30
2019-02-28T13:57:54.844Z,98668.78
2019-02-28T14:00:25.987Z,98654.24
2019-02-28T14:02:59.730Z,98662.89
2019-02-28T14:05:29.901Z,98667.75
2019-02-28T14:07:59.104Z,98640.19
2019-02-28T14:10:29.655Z,98659.51
2019-02-28T14:12:59.958Z,98642.02
2019-02-28T14:15:31.832Z,98643.67
2019-02-28T14:18:00.663Z,98643.11
2019-02-28T14:20:29.462Z,98640.81
2019-02-28T14:22:58.532Z,98640.16
2019-02-28T14:25:27.397Z,98652.16
2019-02-28T14:27:56.974Z,98650.39
2019-02-28T14:30:27.480Z,98645.35
2019-02-28T14:32:56.543Z,98645.86
2019-02-28T14:35:26.319Z,98631.99
2019-02-28T14:37:56.597Z,98631.41
2019-02-28T14:40:25.723Z,98625.95
2019-02-28T14:42:54.534Z,98625.82
2019-02-28T14:45:23.406Z,98615.02
2019-02-28T14:47:56.798Z,98617.70
2019-02-28T14:50:23.413Z,98611.72
2019-02-28T14:52:53.472Z,98599.50
2019-02-28T14:55:22.508Z,98599.50
2019-02-28T14:57:51.735Z,98605.84
2019-02-28T15:00:24.624Z,98594.64
2019-02-28T15:02:53.431Z,98605.71
2019-02-28T15:05:22.373Z,98615.60
2019-02-28T15:07:51.286Z,98610.52
2019-02-28T15:10:20.464Z,98612.80
2019-02-28T15:12:49.576Z,98612.80
2019-02-28T15:15:19.112Z,98625.75
2019-02-28T15:17:48.354Z,98606.02
2019-02-28T15:20:17.643Z,98639.64
2019-02-28T15:22:46.656Z,98639.16
2019-02-28T15:25:18.654Z,98646.64
2019-02-28T15:27:47.129Z,98657.64
2019-02-28T15:30:18.520Z,98649.20
2019-02-28T15:32:47.309Z,98639.77
2019-02-28T15:35:17.409Z,98642.42
2019-02-28T15:37:46.278Z,98659.73
2019-02-28T15:40:17.471Z,98656.09
2019-02-28T15:42:46.466Z,98659.08
2019-02-28T15:45:15.537Z,98668.88
2019-02-28T15:47:44.386Z,98669.82
2019-02-28T15:50:16.300Z,98677.97
2019-02-28T15:52:45.760Z,98676.47
2019-02-28T15:55:15.255Z,98677.45
2019-02-28T15:57:44.294Z,98688.56
2019-02-28T16:00:22.146Z,98691.55
2019-02-28T16:02:50.324Z,98685.72
2019-02-28T16:05:19.600Z,98694.98
2019-02-28T16:07:50.473Z,98688.14
2019-02-28T16:10:21.092Z,98686.63
2019-02-28T16:12:51.152Z,98682.45
2019-02-28T16:15:20.008Z,98689.56
2019-02-28T16:17:48.891Z,98688.66
2019-02-28T16:20:17.963Z,98680.19
2019-02-28T16:22:52.121Z,98688.29
2019-02-28T16:25:20.337Z,98685.64
2019-02-28T16:27:49.193Z,98690.83
2019-02-28T16:30:18.445Z,98685.34
2019-02-28T16:32:49.127Z,98683.12
2019-02-28T16:35:17.974Z,98690.55
2019-02-28T16:37:46.823Z,98684.67
2019-02-28T16:40:16.989Z,98679.56
2019-02-28T16:42:46.442Z,98684.47
2019-02-28T16:45:27.887Z,98696.13
2019-02-28T16:47:59.570Z,98698.86
2019-02-28T16:50:27.598Z,98713.30
2019-02-28T16:52:56.470Z,98723.48
2019-02-28T16:55:27.426Z,98725.56
2019-02-28T16:57:55.921Z,98729.42
2019-02-28T17:00:24.803Z,98740.78
2019-02-28T17:02:53.680Z,98752.35
2019-02-28T17:05:26.698Z,98757.69
2019-02-28T17:07:53.271Z,98761.94
2019-02-28T17:10:26.043Z,98772.01
2019-02-28T17:13:12.930Z,98776.13
2019-02-28T17:16:04.322Z,98782.49
2019-02-28T17:18:33.939Z,98787.00
2019-02-28T17:21:02.808Z,98787.20
2019-02-28T17:23:33.768Z,98792.88
2019-02-28T17:26:02.277Z,98779.67
2019-02-28T17:28:54.004Z,98785.95
2019-02-28T17:31:57.120Z,98786.73
2019-02-28T17:34:25.985Z,98803.61
2019-02-28T17:36:54.844Z,98806.88
2019-02-28T17:39:23.795Z,98813.81
2019-02-28T17:41:52.727Z,98821.80
2019-02-28T17:44:57.888Z,98827.06
2019-02-28T17:48:12.705Z,98822.14
2019-02-28T17:50:51.782Z,98831.34
2019-02-28T17:53:45.639Z,98850.39
2019-02-28T17:56:37.552Z,98844.31
2019-02-28T17:59:44.188Z,98852.19
2019-02-28T18:02:50.686Z,98855.55
2019-02-28T18:05:33.813Z,98859.07
2019-02-28T18:08:32.262Z,98867.80
2019-02-28T18:11:34.110Z,98860.02
2019-02-28T18:14:31.227Z,98863.69
2019-02-28T18:17:35.195Z,98858.98
2019-02-28T18:20:45.535Z,98862.61
2019-02-28T18:23:27.894Z,98863.50
2019-02-28T18:26:38.655Z,98860.39
2019-02-28T18:29:34.205Z,98876.25
2019-02-28T18:32:03.000Z,98878.27
2019-02-28T18:34:34.054Z,98887.74
2019-02-28T18:37:02.914Z,98879.09
2019-02-28T18:39:31.681Z,98881.23
2019-02-28T18:42:00.652Z,98875.05
2019-02-28T18:44:29.516Z,98884.52
2019-02-28T18:46:58.304Z,98879.75
2019-02-28T18:49:29.413Z,98875.80
2019-02-28T18:51:59.564Z,98875.56
2019-02-28T18:54:28.091Z,98872.45
2019-02-28T18:56:56.873Z,98864.64
2019-02-28T18:59:25.649Z,98869.62
2019-02-28T19:01:54.461Z,98862.76
2019-02-28T19:04:23.315Z,98877.19
2019-02-28T19:06:52.168Z,98878.53
2019-02-28T19:09:22.784Z,98880.16
2019-02-28T19:11:51.733Z,98866.17
2019-02-28T19:14:20.571Z,98877.72
2019-02-28T19:16:49.353Z,98868.27
2019-02-28T19:19:18.131Z,98875.09
2019-02-28T19:21:46.933Z,98873.06
2019-02-28T19:24:15.713Z,98881.46
2019-02-28T19:26:44.517Z,98880.96
2019-02-28T19:29:13.935Z,98877.04
2019-02-28T19:31:42.730Z,98874.27
2019-02-28T19:34:11.503Z,98859.08
2019-02-28T19:36:40.280Z,98861.84
2019-02-28T19:39:09.070Z,98856.00
2019-02-28T19:41:37.923Z,98860.69
2019-02-28T19:44:06.685Z,98853.79
2019-02-28T19:46:35.529Z,98856.34
2019-02-28T19:49:04.422Z,98859.25
2019-02-28T19:51:33.207Z,98852.81
2019-02-28T19:54:02.068Z,98851.96
2019-02-28T19:56:30.850Z,98856.65
2019-02-28T19:58:59.640Z,98859.67
2019-02-28T20:01:28.412Z,98859.45
2019-02-28T20:03:57.211Z,98856.81
2019-02-28T20:06:25.977Z,98859.46
2019-02-28T20:08:54.754Z,98858.16
2019-02-28T20:11:23.714Z,98853.48
2019-02-28T20:13:52.514Z,98849.91
2019-02-28T20:16:21.361Z,98849.91
2019-02-28T20:18:50.472Z,98849.90
2019-02-28T20:21:19.416Z,98846.94
2019-02-28T20:23:48.355Z,98848.72
2019-02-28T20:26:17.192Z,98848.97
2019-02-28T20:28:46.943Z,98844.39
2019-02-28T20:31:17.040Z,98840.45
2019-02-28T20:33:46.956Z,98839.48
2019-02-28T20:36:15.801Z,98825.53
2019-02-28T20:38:44.615Z,98825.82
2019-02-28T20:41:13.395Z,98830.38
2019-02-28T20:43:42.193Z,98831.14
2019-02-28T20:46:11.043Z,98826.91
2019-02-28T20:48:39.921Z,98828.73
2019-02-28T20:51:08.752Z,98819.15
2019-02-28T20:53:37.535Z,98822.11
2019-02-28T20:56:06.414Z,98819.27
2019-02-28T20:58:35.202Z,98821.53
2019-02-28T21:01:04.220Z,98823.92
2019-02-28T21:03:33.056Z,98823.23
2019-02-28T21:06:01.900Z,98824.89
2019-02-28T21:08:30.764Z,98824.56
2019-02-28T21:10:59.550Z,98826.10
2019-02-28T21:13:28.341Z,98824.66
2019-02-28T21:15:57.145Z,98816.14
2019-02-28T21:18:25.997Z,98813.89
2019-02-28T21:20:54.776Z,98819.27
2019-02-28T21:23:23.628Z,98816.88
2019-02-28T21:25:52.396Z,98807.88
2019-02-28T21:28:21.291Z,98818.50
2019-02-28T21:30:50.149Z,98805.39
2019-02-28T21:33:18.933Z,98797.00
2019-02-28T21:35:48.514Z,98806.58
2019-02-28T21:38:17.358Z,98798.14
2019-02-28T21:40:46.312Z,98797.45
2019-02-28T21:43:15.182Z,98797.34
2019-02-28T21:45:44.120Z,98797.20
2019-02-28T21:48:12.976Z,98793.86
2019-02-28T21:50:41.757Z,98785.57
2019-02-28T21:53:10.568Z,98790.90
2019-02-28T21:55:39.392Z,98782.19
2019-02-28T21:58:08.182Z,98779.19
2019-02-28T22:02:40.062Z,98767.27
2019-02-28T22:05:10.600Z,98771.81
2019-02-28T22:07:39.556Z,98765.11
2019-02-28T22:10:09.537Z,98759.42
2019-02-28T22:12:38.307Z,98758.97
2019-02-28T22:15:10.534Z,98752.38
2019-02-28T22:17:40.482Z,98750.77
2019-02-28T22:20:11.084Z,98755.40
2019-02-28T22:22:40.168Z,98750.95
2019-02-28T22:25:10.231Z,98751.16
2019-02-28T22:27:39.189Z,98756.56
2019-02-28T22:30:29.099Z,98757.56
2019-02-28T22:32:59.705Z,98752.06
2019-02-28T22:35:34.596Z,98745.69
2019-02-28T22:38:03.385Z,98749.91
2019-02-28T22:40:32.232Z,98741.30
2019-02-28T22:43:01.019Z,98737.56
2019-02-28T22:45:29.807Z,98737.06
2019-02-28T22:47:58.572Z,98732.00
2019-02-28T22:50:27.347Z,98722.62
2019-02-28T22:52:56.169Z,98726.33
2019-02-28T22:55:25.052Z,98723.19
2019-02-28T22:57:53.820Z,98722.92
2019-02-28T23:01:07.128Z,98732.06
2019-02-28T23:03:36.801Z,98730.17
2019-02-28T23:06:06.237Z,98720.06
2019-02-28T23:08:35.146Z,98715.17
2019-02-28T23:11:04.303Z,98716.73
2019-02-28T23:13:33.118Z,98710.09
2019-02-28T23:16:01.961Z,98711.14
2019-02-28T23:18:30.899Z,98709.06
2019-02-28T23:20:59.672Z,98702.16
2019-02-28T23:23:28.766Z,98710.91
2019-02-28T23:26:08.827Z,98725.35
2019-02-28T23:28:39.955Z,98728.34
2019-02-28T23:32:20.796Z,98728.17
2019-02-28T23:34:52.114Z,98732.83
2019-02-28T23:37:21.637Z,98731.88
2019-02-28T23:39:50.433Z,98731.53
2019-02-28T23:42:19.261Z,98730.45
2019-02-28T23:44:48.041Z,98731.51
2019-02-28T23:47:16.811Z,98727.70
2019-02-28T23:49:45.613Z,98732.94
2019-02-28T23:52:14.438Z,98727.56
2019-02-28T23:54:43.205Z,98721.95
2019-02-28T23:57:12.011Z,98713.09
2019-02-28T23:59:40.777Z,98705.72
